LFGQ weather

Semur En Auxois Airfield
Semur En Auxois, Burgundy, France

Public forecast

Using degrees Celsius for public forecast. Weather courtesy of forecast.io.

METAR (pilot weather report)

Closest report is Dijon-Bourgogne Airport, 32.9 nm (61.0 km) ESE. Retrieved 2019/07/18 03:30 UTC (17 minutes ago):

LFSD 180330Z AUTO 32003KT CAVOK 16/09 Q1013

TAF (pilot weather forecast)

Forecast is more than 12 hours old.

Closest forecast is Dijon-Bourgogne Airport, 32.9 nm (61.0 km) ESE. Retrieved 2015/06/01 00:11 UTC (4 years ago):

TAF LFSD 010600Z 0100/0124 CNL